sensor_id;sensor_type;location;lat;lon;timestamp;pressure;altitude;pressure_sealevel;temperature;humidity
20027;BME280;10174;42.688;23.344;2023-05-18T00:00:11;94774.78;;;11.88;100.00
20027;BME280;10174;42.688;23.344;2023-05-18T00:02:39;94824.00;;;12.23;100.00
20027;BME280;10174;42.688;23.344;2023-05-18T00:05:06;94729.34;;;11.52;100.00
20027;BME280;10174;42.688;23.344;2023-05-18T00:07:32;94815.03;;;12.04;100.00
20027;BME280;10174;42.688;23.344;2023-05-18T00:10:01;94812.94;;;11.96;100.00
20027;BME280;10174;42.688;23.344;2023-05-18T00:12:27;94802.25;;;11.85;100.00
20027;BME280;10174;42.688;23.344;2023-05-18T00:14:52;94793.97;;;11.76;100.00
20027;BME280;10174;42.688;23.344;2023-05-18T00:17:18;94819.41;;;11.94;100.00
20027;BME280;10174;42.688;23.344;2023-05-18T00:19:44;94787.31;;;11.69;100.00
20027;BME280;10174;42.688;23.344;2023-05-18T00:22:11;94814.72;;;11.76;100.00
20027;BME280;10174;42.688;23.344;2023-05-18T00:24:46;94792.84;;;11.48;100.00
20027;BME280;10174;42.688;23.344;2023-05-18T00:27:12;94806.78;;;11.55;100.00
20027;BME280;10174;42.688;23.344;2023-05-18T00:29:37;94799.22;;;11.63;100.00
20027;BME280;10174;42.688;23.344;2023-05-18T00:32:03;94824.13;;;11.73;100.00
20027;BME280;10174;42.688;23.344;2023-05-18T00:34:29;94793.34;;;11.55;100.00
20027;BME280;10174;42.688;23.344;2023-05-18T00:36:54;94820.69;;;11.68;100.00
20027;BME280;10174;42.688;23.344;2023-05-18T00:39:20;94815.69;;;11.56;100.00
20027;BME280;10174;42.688;23.344;2023-05-18T00:41:45;94826.63;;;11.65;100.00
20027;BME280;10174;42.688;23.344;2023-05-18T00:44:10;94828.25;;;11.66;100.00
20027;BME280;10174;42.688;23.344;2023-05-18T00:46:36;94821.22;;;11.70;100.00
20027;BME280;10174;42.688;23.344;2023-05-18T00:49:02;94684.66;;;10.93;100.00
20027;BME280;10174;42.688;23.344;2023-05-18T00:51:27;94716.78;;;11.13;100.00
20027;BME280;10174;42.688;23.344;2023-05-18T00:53:55;94815.72;;;11.85;100.00
20027;BME280;10174;42.688;23.344;2023-05-18T00:56:21;94789.94;;;11.74;100.00
20027;BME280;10174;42.688;23.344;2023-05-18T00:58:53;94794.34;;;11.65;100.00
20027;BME280;10174;42.688;23.344;2023-05-18T01:01:25;94813.59;;;11.82;100.00
20027;BME280;10174;42.688;23.344;2023-05-18T01:03:53;94791.56;;;11.75;100.00
20027;BME280;10174;42.688;23.344;2023-05-18T01:06:21;94814.59;;;11.86;100.00
20027;BME280;10174;42.688;23.344;2023-05-18T01:08:50;94795.81;;;11.81;100.00
20027;BME280;10174;42.688;23.344;2023-05-18T01:11:23;94784.69;;;11.64;100.00
20027;BME280;10174;42.688;23.344;2023-05-18T01:16:21;94796.47;;;11.68;100.00
20027;BME280;10174;42.688;23.344;2023-05-18T01:21:56;94820.38;;;11.74;100.00
20027;BME280;10174;42.688;23.344;2023-05-18T01:24:41;94807.34;;;11.57;100.00
20027;BME280;10174;42.688;23.344;2023-05-18T01:27:07;94794.09;;;11.61;100.00
20027;BME280;10174;42.688;23.344;2023-05-18T01:29:33;94830.84;;;11.76;100.00
20027;BME280;10174;42.688;23.344;2023-05-18T01:31:59;94810.41;;;11.75;100.00
20027;BME280;10174;42.688;23.344;2023-05-18T01:34:25;94826.41;;;11.90;100.00
20027;BME280;10174;42.688;23.344;2023-05-18T01:36:50;94787.31;;;11.69;100.00
20027;BME280;10174;42.688;23.344;2023-05-18T01:39:16;94606.78;;;10.53;100.00
20027;BME280;10174;42.688;23.344;2023-05-18T01:41:52;94800.72;;;11.74;100.00
20027;BME280;10174;42.688;23.344;2023-05-18T01:44:27;94811.97;;;11.81;100.00
20027;BME280;10174;42.688;23.344;2023-05-18T01:49:30;94811.34;;;11.89;100.00
20027;BME280;10174;42.688;23.344;2023-05-18T01:52:02;94707.06;;;11.17;100.00
20027;BME280;10174;42.688;23.344;2023-05-18T01:54:29;94802.56;;;11.79;100.00
20027;BME280;10174;42.688;23.344;2023-05-18T01:56:57;94710.84;;;11.16;100.00
20027;BME280;10174;42.688;23.344;2023-05-18T01:59:23;94829.38;;;11.89;100.00
20027;BME280;10174;42.688;23.344;2023-05-18T02:01:49;94820.56;;;11.83;100.00
20027;BME280;10174;42.688;23.344;2023-05-18T02:04:14;94825.38;;;11.86;100.00
20027;BME280;10174;42.688;23.344;2023-05-18T02:06:40;94809.34;;;11.71;100.00
20027;BME280;10174;42.688;23.344;2023-05-18T02:09:05;94814.16;;;11.79;100.00
20027;BME280;10174;42.688;23.344;2023-05-18T02:11:31;94805.72;;;11.56;100.00
20027;BME280;10174;42.688;23.344;2023-05-18T02:13:56;94808.34;;;11.62;100.00
20027;BME280;10174;42.688;23.344;2023-05-18T02:16:22;94830.28;;;11.79;100.00
20027;BME280;10174;42.688;23.344;2023-05-18T02:18:47;94833.00;;;11.74;100.00
20027;BME280;10174;42.688;23.344;2023-05-18T02:21:13;94821.97;;;11.75;100.00
20027;BME280;10174;42.688;23.344;2023-05-18T02:23:39;94829.72;;;11.82;100.00
20027;BME280;10174;42.688;23.344;2023-05-18T02:26:05;94753.47;;;11.33;100.00
20027;BME280;10174;42.688;23.344;2023-05-18T02:28:31;94795.09;;;11.70;100.00
20027;BME280;10174;42.688;23.344;2023-05-18T02:31:09;94815.94;;;11.89;100.00
20027;BME280;10174;42.688;23.344;2023-05-18T02:33:36;94830.69;;;11.97;100.00
20027;BME280;10174;42.688;23.344;2023-05-18T02:36:12;94832.31;;;11.98;100.00
20027;BME280;10174;42.688;23.344;2023-05-18T02:38:42;94799.69;;;11.70;100.00
20027;BME280;10174;42.688;23.344;2023-05-18T02:41:11;94827.72;;;11.98;100.00
20027;BME280;10174;42.688;23.344;2023-05-18T02:43:36;94827.91;;;12.07;100.00
20027;BME280;10174;42.688;23.344;2023-05-18T02:46:03;94848.94;;;12.05;100.00
20027;BME280;10174;42.688;23.344;2023-05-18T02:48:29;94843.00;;;12.08;100.00
20027;BME280;10174;42.688;23.344;2023-05-18T02:50:54;94840.81;;;12.10;100.00
20027;BME280;10174;42.688;23.344;2023-05-18T02:53:20;94829.47;;;12.13;100.00
20027;BME280;10174;42.688;23.344;2023-05-18T02:55:46;94832.78;;;12.05;100.00
20027;BME280;10174;42.688;23.344;2023-05-18T02:58:13;94848.97;;;12.00;100.00
20027;BME280;10174;42.688;23.344;2023-05-18T03:00:38;94856.47;;;12.03;100.00
20027;BME280;10174;42.688;23.344;2023-05-18T03:03:04;94842.53;;;11.96;100.00
20027;BME280;10174;42.688;23.344;2023-05-18T03:05:30;94839.09;;;11.85;100.00
20027;BME280;10174;42.688;23.344;2023-05-18T03:07:55;94849.03;;;11.94;100.00
20027;BME280;10174;42.688;23.344;2023-05-18T03:10:21;94879.50;;;12.19;100.00
20027;BME280;10174;42.688;23.344;2023-05-18T03:12:47;94870.34;;;12.20;100.00
20027;BME280;10174;42.688;23.344;2023-05-18T03:15:13;94866.66;;;12.11;100.00
20027;BME280;10174;42.688;23.344;2023-05-18T03:17:43;94756.44;;;11.32;100.00
20027;BME280;10174;42.688;23.344;2023-05-18T03:20:08;94862.97;;;12.02;100.00
20027;BME280;10174;42.688;23.344;2023-05-18T03:22:38;94887.00;;;12.22;100.00
20027;BME280;10174;42.688;23.344;2023-05-18T03:25:05;94890.56;;;12.18;100.00
20027;BME280;10174;42.688;23.344;2023-05-18T03:27:30;94902.69;;;12.15;100.00
20027;BME280;10174;42.688;23.344;2023-05-18T03:29:56;94894.00;;;12.23;100.00
20027;BME280;10174;42.688;23.344;2023-05-18T03:32:22;94883.59;;;12.11;100.00
20027;BME280;10174;42.688;23.344;2023-05-18T03:34:49;94906.47;;;12.14;100.00
20027;BME280;10174;42.688;23.344;2023-05-18T03:37:15;94898.97;;;12.11;100.00
20027;BME280;10174;42.688;23.344;2023-05-18T03:39:41;94826.13;;;11.63;100.00
20027;BME280;10174;42.688;23.344;2023-05-18T03:42:06;94883.47;;;11.98;100.00
20027;BME280;10174;42.688;23.344;2023-05-18T03:44:32;94896.34;;;12.01;100.00
20027;BME280;10174;42.688;23.344;2023-05-18T03:46:57;94903.91;;;11.99;100.00
20027;BME280;10174;42.688;23.344;2023-05-18T03:49:23;94909.84;;;11.96;100.00
20027;BME280;10174;42.688;23.344;2023-05-18T03:51:48;94913.06;;;11.98;100.00
20027;BME280;10174;42.688;23.344;2023-05-18T03:54:13;94914.97;;;11.92;100.00
20027;BME280;10174;42.688;23.344;2023-05-18T03:56:39;94888.94;;;11.82;100.00
20027;BME280;10174;42.688;23.344;2023-05-18T03:59:05;94905.59;;;11.84;100.00
20027;BME280;10174;42.688;23.344;2023-05-18T04:01:31;94894.38;;;11.72;100.00
20027;BME280;10174;42.688;23.344;2023-05-18T04:03:58;94898.16;;;11.71;100.00
20027;BME280;10174;42.688;23.344;2023-05-18T04:06:23;94920.31;;;12.02;100.00
20027;BME280;10174;42.688;23.344;2023-05-18T04:08:51;94913.56;;;12.05;100.00
20027;BME280;10174;42.688;23.344;2023-05-18T04:11:17;94913.16;;;12.17;100.00
20027;BME280;10174;42.688;23.344;2023-05-18T04:13:42;94880.59;;;11.84;100.00
20027;BME280;10174;42.688;23.344;2023-05-18T04:16:08;94827.81;;;11.53;100.00
20027;BME280;10174;42.688;23.344;2023-05-18T04:18:38;94909.75;;;12.06;100.00
20027;BME280;10174;42.688;23.344;2023-05-18T04:21:03;94930.66;;;12.19;100.00
20027;BME280;10174;42.688;23.344;2023-05-18T04:23:30;94929.44;;;12.01;100.00
20027;BME280;10174;42.688;23.344;2023-05-18T04:25:58;94821.94;;;11.46;100.00
20027;BME280;10174;42.688;23.344;2023-05-18T04:28:23;94917.75;;;12.16;100.00
20027;BME280;10174;42.688;23.344;2023-05-18T04:30:49;94925.19;;;12.29;100.00
20027;BME280;10174;42.688;23.344;2023-05-18T04:33:16;94926.47;;;12.37;100.00
20027;BME280;10174;42.688;23.344;2023-05-18T04:35:42;94934.41;;;12.53;100.00
20027;BME280;10174;42.688;23.344;2023-05-18T04:38:07;94930.38;;;12.50;100.00
20027;BME280;10174;42.688;23.344;2023-05-18T04:40:33;94913.22;;;12.41;100.00
20027;BME280;10174;42.688;23.344;2023-05-18T04:42:58;94939.00;;;12.52;100.00
20027;BME280;10174;42.688;23.344;2023-05-18T04:45:25;94887.09;;;12.12;100.00
20027;BME280;10174;42.688;23.344;2023-05-18T04:47:50;94930.44;;;12.45;100.00
20027;BME280;10174;42.688;23.344;2023-05-18T04:50:20;94885.97;;;12.18;100.00
20027;BME280;10174;42.688;23.344;2023-05-18T04:52:51;94926.91;;;12.44;100.00
20027;BME280;10174;42.688;23.344;2023-05-18T04:55:18;94820.66;;;11.73;100.00
20027;BME280;10174;42.688;23.344;2023-05-18T04:57:50;94955.97;;;12.53;100.00
20027;BME280;10174;42.688;23.344;2023-05-18T05:00:18;94960.97;;;12.64;100.00
20027;BME280;10174;42.688;23.344;2023-05-18T05:02:44;94850.53;;;12.06;100.00
20027;BME280;10174;42.688;23.344;2023-05-18T05:05:09;94970.47;;;12.86;100.00
20027;BME280;10174;42.688;23.344;2023-05-18T05:07:35;94877.22;;;12.32;100.00
20027;BME280;10174;42.688;23.344;2023-05-18T05:10:01;94976.94;;;12.85;100.00
20027;BME280;10174;42.688;23.344;2023-05-18T05:12:26;94957.59;;;12.78;100.00
20027;BME280;10174;42.688;23.344;2023-05-18T05:14:51;94981.16;;;12.96;100.00
20027;BME280;10174;42.688;23.344;2023-05-18T05:17:17;94859.59;;;12.15;100.00
20027;BME280;10174;42.688;23.344;2023-05-18T05:19:42;94993.22;;;12.99;100.00
20027;BME280;10174;42.688;23.344;2023-05-18T05:22:08;94983.88;;;12.91;100.00
20027;BME280;10174;42.688;23.344;2023-05-18T05:24:33;94986.38;;;12.82;100.00
20027;BME280;10174;42.688;23.344;2023-05-18T05:26:58;94963.09;;;12.68;100.00
20027;BME280;10174;42.688;23.344;2023-05-18T05:29:24;94989.84;;;12.88;100.00
20027;BME280;10174;42.688;23.344;2023-05-18T05:31:50;94984.06;;;13.00;100.00
20027;BME280;10174;42.688;23.344;2023-05-18T05:34:16;94983.38;;;12.89;100.00
20027;BME280;10174;42.688;23.344;2023-05-18T05:36:41;95000.84;;;12.92;100.00
20027;BME280;10174;42.688;23.344;2023-05-18T05:39:06;94976.34;;;12.88;100.00
20027;BME280;10174;42.688;23.344;2023-05-18T05:41:32;95011.31;;;12.98;100.00
20027;BME280;10174;42.688;23.344;2023-05-18T05:43:57;95001.34;;;12.70;100.00
20027;BME280;10174;42.688;23.344;2023-05-18T05:46:23;94994.16;;;12.60;100.00
20027;BME280;10174;42.688;23.344;2023-05-18T05:48:48;95007.34;;;12.61;100.00
20027;BME280;10174;42.688;23.344;2023-05-18T05:51:14;94880.25;;;11.90;100.00
20027;BME280;10174;42.688;23.344;2023-05-18T05:53:39;94982.09;;;12.52;100.00
20027;BME280;10174;42.688;23.344;2023-05-18T05:56:05;94983.66;;;12.58;100.00
20027;BME280;10174;42.688;23.344;2023-05-18T05:58:33;95015.81;;;12.79;100.00
20027;BME280;10174;42.688;23.344;2023-05-18T06:00:58;94997.50;;;12.76;100.00
20027;BME280;10174;42.688;23.344;2023-05-18T06:03:24;95010.84;;;12.91;100.00
20027;BME280;10174;42.688;23.344;2023-05-18T06:05:49;94970.38;;;12.67;100.00
20027;BME280;10174;42.688;23.344;2023-05-18T06:08:15;95009.19;;;12.95;100.00
20027;BME280;10174;42.688;23.344;2023-05-18T06:10:41;95011.63;;;12.92;100.00
20027;BME280;10174;42.688;23.344;2023-05-18T06:13:07;95012.94;;;12.99;100.00
20027;BME280;10174;42.688;23.344;2023-05-18T06:15:32;95010.34;;;12.84;100.00
20027;BME280;10174;42.688;23.344;2023-05-18T06:17:57;94890.19;;;12.00;100.00
20027;BME280;10174;42.688;23.344;2023-05-18T06:20:23;94982.09;;;12.52;100.00
20027;BME280;10174;42.688;23.344;2023-05-18T06:22:48;95025.66;;;12.64;100.00
20027;BME280;10174;42.688;23.344;2023-05-18T06:25:14;95019.16;;;12.65;100.00
20027;BME280;10174;42.688;23.344;2023-05-18T06:27:39;95019.00;;;12.86;100.00
20027;BME280;10174;42.688;23.344;2023-05-18T06:30:07;94994.19;;;12.55;100.00
20027;BME280;10174;42.688;23.344;2023-05-18T06:32:35;95034.53;;;12.65;100.00
20027;BME280;10174;42.688;23.344;2023-05-18T06:35:01;94998.03;;;12.48;100.00
20027;BME280;10174;42.688;23.344;2023-05-18T06:37:28;95018.59;;;12.69;100.00
20027;BME280;10174;42.688;23.344;2023-05-18T06:39:53;95040.00;;;12.84;100.00
20027;BME280;10174;42.688;23.344;2023-05-18T06:42:19;95041.56;;;12.90;100.00
20027;BME280;10174;42.688;23.344;2023-05-18T06:44:44;94956.31;;;12.46;100.00
20027;BME280;10174;42.688;23.344;2023-05-18T06:47:10;95012.47;;;12.92;100.00
20027;BME280;10174;42.688;23.344;2023-05-18T06:49:35;95043.16;;;13.21;100.00
20027;BME280;10174;42.688;23.344;2023-05-18T06:52:01;94965.06;;;12.86;99.10
20027;BME280;10174;42.688;23.344;2023-05-18T06:54:27;95048.66;;;13.40;96.42
20027;BME280;10174;42.688;23.344;2023-05-18T06:56:54;95053.38;;;13.53;97.44
20027;BME280;10174;42.688;23.344;2023-05-18T06:59:19;95055.03;;;13.49;97.38
20027;BME280;10174;42.688;23.344;2023-05-18T07:01:44;95081.84;;;13.64;96.48
20027;BME280;10174;42.688;23.344;2023-05-18T07:04:10;95059.47;;;13.64;95.39
20027;BME280;10174;42.688;23.344;2023-05-18T07:06:35;95062.31;;;13.72;95.89
20027;BME280;10174;42.688;23.344;2023-05-18T07:09:02;95047.34;;;13.61;92.96
20027;BME280;10174;42.688;23.344;2023-05-18T07:11:27;95071.31;;;13.87;91.83
20027;BME280;10174;42.688;23.344;2023-05-18T07:13:53;95072.91;;;13.88;92.92
20027;BME280;10174;42.688;23.344;2023-05-18T07:16:18;95072.66;;;13.65;90.70
20027;BME280;10174;42.688;23.344;2023-05-18T07:18:44;95092.44;;;13.61;90.40
20027;BME280;10174;42.688;23.344;2023-05-18T07:21:09;95063.25;;;13.39;90.75
20027;BME280;10174;42.688;23.344;2023-05-18T07:23:35;95094.16;;;13.51;91.34
20027;BME280;10174;42.688;23.344;2023-05-18T07:26:01;95084.84;;;13.63;89.05
20027;BME280;10174;42.688;23.344;2023-05-18T07:28:26;95077.19;;;13.46;90.62
20027;BME280;10174;42.688;23.344;2023-05-18T07:30:52;94997.91;;;12.93;90.77
20027;BME280;10174;42.688;23.344;2023-05-18T07:33:17;95099.53;;;13.51;90.20
20027;BME280;10174;42.688;23.344;2023-05-18T07:35:42;95081.56;;;13.42;90.03
20027;BME280;10174;42.688;23.344;2023-05-18T07:38:08;95090.69;;;13.46;90.57
20027;BME280;10174;42.688;23.344;2023-05-18T07:40:33;95066.72;;;13.39;89.51
20027;BME280;10174;42.688;23.344;2023-05-18T07:42:58;95111.47;;;13.69;89.57
20027;BME280;10174;42.688;23.344;2023-05-18T07:45:24;95006.50;;;12.95;88.63
20027;BME280;10174;42.688;23.344;2023-05-18T07:47:49;95123.25;;;13.54;87.66
20027;BME280;10174;42.688;23.344;2023-05-18T07:50:15;95115.59;;;13.38;86.24
20027;BME280;10174;42.688;23.344;2023-05-18T07:52:40;94992.69;;;12.43;84.51
20027;BME280;10174;42.688;23.344;2023-05-18T07:55:06;95126.47;;;13.27;86.44
20027;BME280;10174;42.688;23.344;2023-05-18T07:57:33;95123.72;;;13.32;86.51
20027;BME280;10174;42.688;23.344;2023-05-18T07:59:59;95002.97;;;12.65;87.25
20027;BME280;10174;42.688;23.344;2023-05-18T08:02:24;94996.56;;;12.61;85.16
20027;BME280;10174;42.688;23.344;2023-05-18T08:04:50;95123.06;;;13.46;84.12
20027;BME280;10174;42.688;23.344;2023-05-18T08:07:16;95130.66;;;13.44;84.22
20027;BME280;10174;42.688;23.344;2023-05-18T08:09:42;95137.88;;;13.72;83.98
20027;BME280;10174;42.688;23.344;2023-05-18T08:12:08;95150.97;;;13.60;84.84
20027;BME280;10174;42.688;23.344;2023-05-18T08:14:34;95125.00;;;13.40;81.50
20027;BME280;10174;42.688;23.344;2023-05-18T08:16:59;95157.06;;;13.47;83.49
20027;BME280;10174;42.688;23.344;2023-05-18T08:19:25;95150.63;;;13.43;83.22
20027;BME280;10174;42.688;23.344;2023-05-18T08:21:50;95158.66;;;13.48;83.01
20027;BME280;10174;42.688;23.344;2023-05-18T08:24:16;95155.09;;;13.52;83.20
20027;BME280;10174;42.688;23.344;2023-05-18T08:26:41;95165.22;;;13.66;83.56
20027;BME280;10174;42.688;23.344;2023-05-18T08:29:07;95168.00;;;13.85;82.56
20027;BME280;10174;42.688;23.344;2023-05-18T08:31:39;95167.56;;;13.78;84.03
20027;BME280;10174;42.688;23.344;2023-05-18T08:34:06;95163.16;;;13.82;81.84
20027;BME280;10174;42.688;23.344;2023-05-18T08:36:33;95159.03;;;13.65;85.26
20027;BME280;10174;42.688;23.344;2023-05-18T08:38:59;95168.34;;;13.78;88.38
20027;BME280;10174;42.688;23.344;2023-05-18T08:41:29;95170.06;;;13.93;86.94
20027;BME280;10174;42.688;23.344;2023-05-18T08:44:01;95185.81;;;13.86;89.84
20027;BME280;10174;42.688;23.344;2023-05-18T08:46:32;95196.09;;;13.84;91.30
20027;BME280;10174;42.688;23.344;2023-05-18T08:48:59;95133.06;;;13.45;91.57
20027;BME280;10174;42.688;23.344;2023-05-18T08:51:28;95190.50;;;13.75;91.86
20027;BME280;10174;42.688;23.344;2023-05-18T08:53:54;95187.59;;;13.71;93.40
20027;BME280;10174;42.688;23.344;2023-05-18T08:56:23;95112.59;;;13.10;94.11
20027;BME280;10174;42.688;23.344;2023-05-18T08:58:54;95204.53;;;13.77;93.42
20027;BME280;10174;42.688;23.344;2023-05-18T09:01:20;95146.28;;;13.47;92.10
20027;BME280;10174;42.688;23.344;2023-05-18T09:03:52;95204.50;;;14.06;90.90
20027;BME280;10174;42.688;23.344;2023-05-18T09:06:19;95207.41;;;14.10;85.88
20027;BME280;10174;42.688;23.344;2023-05-18T09:08:45;95196.97;;;13.79;89.10
20027;BME280;10174;42.688;23.344;2023-05-18T09:11:11;95097.94;;;13.21;88.73
20027;BME280;10174;42.688;23.344;2023-05-18T09:13:37;95165.88;;;13.82;87.96
20027;BME280;10174;42.688;23.344;2023-05-18T09:16:03;95229.03;;;14.10;87.42
20027;BME280;10174;42.688;23.344;2023-05-18T09:18:28;95209.31;;;14.10;86.28
20027;BME280;10174;42.688;23.344;2023-05-18T09:20:54;95216.97;;;14.02;85.99
20027;BME280;10174;42.688;23.344;2023-05-18T09:23:20;95218.44;;;14.38;83.06
20027;BME280;10174;42.688;23.344;2023-05-18T09:25:45;95129.94;;;13.62;86.02
20027;BME280;10174;42.688;23.344;2023-05-18T09:28:24;95217.19;;;14.30;86.84
20027;BME280;10174;42.688;23.344;2023-05-18T09:30:50;95207.59;;;14.19;86.11
20027;BME280;10174;42.688;23.344;2023-05-18T09:33:18;95237.59;;;14.41;85.64
20027;BME280;10174;42.688;23.344;2023-05-18T09:35:46;95226.72;;;14.47;85.01
20027;BME280;10174;42.688;23.344;2023-05-18T09:38:15;95206.63;;;14.53;84.30
20027;BME280;10174;42.688;23.344;2023-05-18T09:40:46;95221.78;;;14.54;83.30
20027;BME280;10174;42.688;23.344;2023-05-18T09:43:13;95235.47;;;14.38;84.15
20027;BME280;10174;42.688;23.344;2023-05-18T09:45:43;95235.47;;;14.38;84.01
20027;BME280;10174;42.688;23.344;2023-05-18T09:48:09;95243.81;;;14.18;86.24
20027;BME280;10174;42.688;23.344;2023-05-18T09:50:35;95238.19;;;13.85;87.11
20027;BME280;10174;42.688;23.344;2023-05-18T09:53:06;95223.72;;;13.76;88.48
20027;BME280;10174;42.688;23.344;2023-05-18T09:55:35;95230.72;;;13.77;89.63
20027;BME280;10174;42.688;23.344;2023-05-18T09:58:01;95247.19;;;14.04;86.68
20027;BME280;10174;42.688;23.344;2023-05-18T10:00:28;95246.75;;;13.97;86.84
20027;BME280;10174;42.688;23.344;2023-05-18T10:02:54;95201.16;;;13.90;85.68
20027;BME280;10174;42.688;23.344;2023-05-18T10:05:22;95235.22;;;14.11;84.85
20027;BME280;10174;42.688;23.344;2023-05-18T10:07:49;95252.13;;;14.21;84.65
20027;BME280;10174;42.688;23.344;2023-05-18T10:10:20;95240.41;;;14.31;83.51
20027;BME280;10174;42.688;23.344;2023-05-18T10:12:46;95241.91;;;13.94;86.67
20027;BME280;10174;42.688;23.344;2023-05-18T10:15:17;95156.72;;;13.19;88.49
20027;BME280;10174;42.688;23.344;2023-05-18T10:17:45;95266.63;;;14.06;85.57
20027;BME280;10174;42.688;23.344;2023-05-18T10:20:14;95159.13;;;13.55;83.88
20027;BME280;10174;42.688;23.344;2023-05-18T10:22:40;95259.38;;;14.26;83.58
20027;BME280;10174;42.688;23.344;2023-05-18T10:25:09;95253.97;;;14.26;84.99
20027;BME280;10174;42.688;23.344;2023-05-18T10:27:36;95237.91;;;14.16;84.51
20027;BME280;10174;42.688;23.344;2023-05-18T10:30:05;95263.03;;;14.59;81.46
20027;BME280;10174;42.688;23.344;2023-05-18T10:32:34;95261.91;;;14.41;83.99
20027;BME280;10174;42.688;23.344;2023-05-18T10:35:00;95259.22;;;14.41;83.68
20027;BME280;10174;42.688;23.344;2023-05-18T10:37:28;95207.19;;;14.06;83.91
20027;BME280;10174;42.688;23.344;2023-05-18T10:39:55;95267.47;;;14.50;84.03
20027;BME280;10174;42.688;23.344;2023-05-18T10:42:24;95218.50;;;14.08;84.61
20027;BME280;10174;42.688;23.344;2023-05-18T10:44:52;95285.41;;;14.41;84.89
20027;BME280;10174;42.688;23.344;2023-05-18T10:47:18;95281.94;;;14.65;81.18
20027;BME280;10174;42.688;23.344;2023-05-18T10:49:47;95289.81;;;14.61;81.20
20027;BME280;10174;42.688;23.344;2023-05-18T10:52:15;95176.81;;;13.66;81.94
20027;BME280;10174;42.688;23.344;2023-05-18T10:54:41;95268.63;;;14.20;82.13
20027;BME280;10174;42.688;23.344;2023-05-18T10:57:10;95288.50;;;14.29;82.39
20027;BME280;10174;42.688;23.344;2023-05-18T10:59:41;95176.22;;;13.75;81.23
20027;BME280;10174;42.688;23.344;2023-05-18T11:02:09;95289.38;;;14.49;81.18
20027;BME280;10174;42.688;23.344;2023-05-18T11:04:38;95277.41;;;14.55;80.71
20027;BME280;10174;42.688;23.344;2023-05-18T11:07:09;95297.09;;;14.36;84.03
20027;BME280;10174;42.688;23.344;2023-05-18T11:09:35;95304.34;;;14.41;83.36
20027;BME280;10174;42.688;23.344;2023-05-18T11:12:01;95285.25;;;14.56;80.68
20027;BME280;10174;42.688;23.344;2023-05-18T11:14:28;95296.34;;;14.79;82.35
20027;BME280;10174;42.688;23.344;2023-05-18T11:17:14;95307.47;;;14.77;83.00
20027;BME280;10174;42.688;23.344;2023-05-18T11:27:51;95322.06;;;14.76;83.64
20027;BME280;10174;42.688;23.344;2023-05-18T11:33:26;95328.25;;;14.29;87.41
20027;BME280;10174;42.688;23.344;2023-05-18T11:36:18;95321.47;;;14.31;88.31
20027;BME280;10174;42.688;23.344;2023-05-18T11:39:09;95323.59;;;14.34;88.08
20027;BME280;10174;42.688;23.344;2023-05-18T11:41:40;95331.00;;;14.23;86.28
20027;BME280;10174;42.688;23.344;2023-05-18T11:49:26;95329.44;;;14.95;81.06
20027;BME280;10174;42.688;23.344;2023-05-18T11:54:45;95333.09;;;15.04;80.38
20027;BME280;10174;42.688;23.344;2023-05-18T11:57:15;95332.75;;;14.87;81.57
20027;BME280;10174;42.688;23.344;2023-05-18T12:00:04;95333.81;;;14.91;81.33
20027;BME280;10174;42.688;23.344;2023-05-18T12:02:33;95328.19;;;14.87;80.71
20027;BME280;10174;42.688;23.344;2023-05-18T12:05:00;95334.91;;;14.66;82.31
20027;BME280;10174;42.688;23.344;2023-05-18T12:07:27;95325.06;;;14.51;81.95
20027;BME280;10174;42.688;23.344;2023-05-18T12:10:05;95324.34;;;14.16;85.43
20027;BME280;10174;42.688;23.344;2023-05-18T12:12:31;95226.59;;;13.55;84.55
20027;BME280;10174;42.688;23.344;2023-05-18T12:14:59;95310.91;;;14.05;84.69
20027;BME280;10174;42.688;23.344;2023-05-18T12:17:42;95354.19;;;14.00;84.34
20027;BME280;10174;42.688;23.344;2023-05-18T12:20:09;95341.69;;;14.10;83.76
20027;BME280;10174;42.688;23.344;2023-05-18T12:22:37;95355.84;;;14.25;83.45
20027;BME280;10174;42.688;23.344;2023-05-18T12:25:02;95346.56;;;14.07;85.80
20027;BME280;10174;42.688;23.344;2023-05-18T12:27:28;95345.16;;;13.81;87.40
20027;BME280;10174;42.688;23.344;2023-05-18T12:29:53;95347.75;;;13.96;87.19
20027;BME280;10174;42.688;23.344;2023-05-18T12:32:18;95347.53;;;14.17;84.32
20027;BME280;10174;42.688;23.344;2023-05-18T12:34:44;95354.47;;;14.28;82.47
20027;BME280;10174;42.688;23.344;2023-05-18T12:37:10;95352.56;;;13.99;84.15
20027;BME280;10174;42.688;23.344;2023-05-18T12:39:36;95358.88;;;13.89;87.07
20027;BME280;10174;42.688;23.344;2023-05-18T12:42:27;95353.22;;;13.86;88.83
20027;BME280;10174;42.688;23.344;2023-05-18T12:44:53;95240.78;;;12.97;88.92
20027;BME280;10174;42.688;23.344;2023-05-18T12:47:18;95344.84;;;13.48;90.57
20027;BME280;10174;42.688;23.344;2023-05-18T12:49:47;95328.16;;;13.46;88.36
20027;BME280;10174;42.688;23.344;2023-05-18T12:52:14;95348.38;;;13.48;92.33
20027;BME280;10174;42.688;23.344;2023-05-18T12:55:07;95331.94;;;13.45;91.18
20027;BME280;10174;42.688;23.344;2023-05-18T12:57:36;95361.88;;;13.48;92.63
20027;BME280;10174;42.688;23.344;2023-05-18T13:00:06;95305.88;;;13.25;90.91
20027;BME280;10174;42.688;23.344;2023-05-18T13:02:36;95339.84;;;13.26;90.55
20027;BME280;10174;42.688;23.344;2023-05-18T13:05:09;95359.50;;;13.31;92.24
20027;BME280;10174;42.688;23.344;2023-05-18T13:07:43;95363.13;;;13.16;90.24
20027;BME280;10174;42.688;23.344;2023-05-18T13:10:11;95376.88;;;13.15;90.45
20027;BME280;10174;42.688;23.344;2023-05-18T13:12:41;95310.72;;;12.73;90.00